createdAt,value
2017-05-15T00:00:38.026Z,13.47
2017-05-15T00:01:18.606Z,13.52
2017-05-15T00:01:59.129Z,13.44
2017-05-15T00:02:39.706Z,13.44
2017-05-15T00:03:20.201Z,13.38
2017-05-15T00:04:00.730Z,13.35
2017-05-15T00:04:41.298Z,13.35
2017-05-15T00:05:21.812Z,13.39
2017-05-15T00:06:02.382Z,13.35
2017-05-15T00:06:42.907Z,13.38
2017-05-15T00:07:23.524Z,13.33
2017-05-15T00:08:04.029Z,13.27
2017-05-15T00:08:44.662Z,13.28
2017-05-15T00:09:25.163Z,13.28
2017-05-15T00:10:05.681Z,13.25
2017-05-15T00:10:46.234Z,13.19
2017-05-15T00:11:26.733Z,13.28
2017-05-15T00:12:07.359Z,13.19
2017-05-15T00:12:47.994Z,13.22
2017-05-15T00:13:28.513Z,13.13
2017-05-15T00:14:09.012Z,13.13
2017-05-15T00:14:49.621Z,13.12
2017-05-15T00:15:30.129Z,13.15
2017-05-15T00:16:10.631Z,13.04
2017-05-15T00:16:51.186Z,13.05
2017-05-15T00:17:32.743Z,13.05
2017-05-15T00:18:13.318Z,13.01
2017-05-15T00:18:53.825Z,13.04
2017-05-15T00:19:34.418Z,12.98
2017-05-15T00:20:14.972Z,12.97
2017-05-15T00:20:55.504Z,12.94
2017-05-15T00:21:36.069Z,12.9
2017-05-15T00:22:16.608Z,12.91
2017-05-15T00:22:57.175Z,12.87
2017-05-15T00:23:37.706Z,12.85
2017-05-15T00:24:18.273Z,12.8
2017-05-15T00:24:58.920Z,12.79
2017-05-15T00:25:39.425Z,12.78
2017-05-15T00:26:20.002Z,12.85
2017-05-15T00:27:00.613Z,12.8
2017-05-15T00:27:41.168Z,12.79
2017-05-15T00:28:21.751Z,12.8
2017-05-15T00:29:02.284Z,12.79
2017-05-15T00:29:42.808Z,12.86
2017-05-15T00:30:23.426Z,12.78
2017-05-15T00:31:04.007Z,12.8
2017-05-15T00:31:44.637Z,12.76
2017-05-15T00:32:25.161Z,12.78
2017-05-15T00:33:05.786Z,12.82
2017-05-15T00:33:46.280Z,12.82
2017-05-15T00:34:26.922Z,12.83
2017-05-15T00:35:07.430Z,12.86
2017-05-15T00:35:48.082Z,12.78
2017-05-15T00:36:28.672Z,12.86
2017-05-15T00:37:09.207Z,12.8
2017-05-15T00:38:02.577Z,12.8
2017-05-15T00:38:45.147Z,12.82
2017-05-15T00:46:30.837Z,12.58
2017-05-15T00:47:11.398Z,12.6
2017-05-15T00:47:52.064Z,12.57
2017-05-15T01:10:07.829Z,11.75
2017-05-15T01:10:48.485Z,11.62
2017-05-15T01:11:29.136Z,11.72
2017-05-15T01:12:09.787Z,11.68
2017-05-15T01:12:51.379Z,11.66
2017-05-15T01:13:31.962Z,11.6
2017-05-15T01:14:12.517Z,11.63
2017-05-15T01:14:54.094Z,11.63
2017-05-15T01:15:34.733Z,11.62
2017-05-15T01:16:16.357Z,11.54
2017-05-15T01:16:57.010Z,11.62
2017-05-15T01:17:37.611Z,11.54
2017-05-15T01:18:18.215Z,11.52
2017-05-15T01:18:59.873Z,11.48
2017-05-15T01:19:50.980Z,11.48
2017-05-15T01:20:31.592Z,11.5
2017-05-15T01:21:12.134Z,11.48
2017-05-15T01:21:58.793Z,11.43
2017-05-15T01:40:02.949Z,10.99
2017-05-15T01:40:43.461Z,11.05
2017-05-15T01:41:24.028Z,11.04
2017-05-15T01:42:04.701Z,11
2017-05-15T01:42:45.303Z,10.89
2017-05-15T01:43:25.976Z,10.93
2017-05-15T01:44:06.633Z,10.93
2017-05-15T01:44:48.349Z,10.86
2017-05-15T01:45:29.085Z,10.86
2017-05-15T01:46:09.669Z,10.79
2017-05-15T01:46:50.242Z,10.9
2017-05-15T01:47:30.792Z,10.92
2017-05-15T01:48:11.458Z,10.76
2017-05-15T01:48:52.068Z,10.81
2017-05-15T01:49:32.794Z,10.79
2017-05-15T01:50:14.412Z,10.81
2017-05-15T01:50:57.119Z,10.79
2017-05-15T01:51:37.730Z,10.75
2017-05-15T01:52:18.384Z,10.71
2017-05-15T01:52:59.072Z,10.74
2017-05-15T01:53:39.703Z,10.71
2017-05-15T01:54:20.297Z,10.64
2017-05-15T01:55:00.848Z,10.69
2017-05-15T01:55:41.509Z,10.72
2017-05-15T01:56:22.284Z,10.64
2017-05-15T01:57:04.012Z,10.71
2017-05-15T01:57:44.564Z,10.68
2017-05-15T01:58:25.175Z,10.68
2017-05-15T01:59:06.821Z,10.71
2017-05-15T01:59:48.429Z,10.67
2017-05-15T02:00:29.084Z,10.68
2017-05-15T02:01:09.706Z,10.61
2017-05-15T02:01:50.255Z,10.68
2017-05-15T02:02:30.950Z,10.67
2017-05-15T02:03:11.526Z,10.71
2017-05-15T02:03:52.189Z,10.61
2017-05-15T02:04:32.829Z,10.57
2017-05-15T02:05:13.368Z,10.54
2017-05-15T02:05:54.038Z,10.53
2017-05-15T02:06:35.736Z,10.56
2017-05-15T02:07:16.368Z,10.51
2017-05-15T02:07:56.945Z,10.51
2017-05-15T02:08:37.578Z,10.48
2017-05-15T02:09:18.175Z,10.51
2017-05-15T02:09:58.768Z,10.53
2017-05-15T02:10:39.425Z,10.41
2017-05-15T02:11:19.994Z,10.53
2017-05-15T02:12:00.707Z,10.42
2017-05-15T02:12:41.314Z,10.4
2017-05-15T02:13:21.902Z,10.44
2017-05-15T02:14:02.454Z,10.42
2017-05-15T02:14:43.003Z,10.37
2017-05-15T02:15:23.637Z,10.41
2017-05-15T02:16:04.197Z,10.37
2017-05-15T02:16:44.817Z,10.33
2017-05-15T02:17:25.409Z,10.35
2017-05-15T02:18:06.097Z,10.35
2017-05-15T02:18:46.632Z,10.33
2017-05-15T02:19:27.218Z,10.35
2017-05-15T02:20:07.847Z,10.25
2017-05-15T02:20:48.514Z,10.3
2017-05-15T02:21:29.070Z,10.26
2017-05-15T02:22:09.709Z,10.3
2017-05-15T02:22:50.279Z,10.33
2017-05-15T02:23:30.971Z,10.26
2017-05-15T02:24:12.666Z,10.28
2017-05-15T02:24:54.387Z,10.22
2017-05-15T02:25:34.945Z,10.19
2017-05-15T02:26:15.631Z,10.23
2017-05-15T02:26:57.289Z,10.25
2017-05-15T02:27:38.336Z,10.19
2017-05-15T02:28:18.970Z,10.23
2017-05-15T02:28:59.551Z,10.28
2017-05-15T02:29:40.188Z,10.35
2017-05-15T02:30:20.817Z,10.28
2017-05-15T02:31:01.396Z,10.19
2017-05-15T02:31:42.004Z,10.26
2017-05-15T02:32:22.669Z,10.23
2017-05-15T02:33:03.229Z,10.16
2017-05-15T02:33:48.862Z,10.13
2017-05-15T02:34:29.543Z,10.13
2017-05-15T02:35:10.067Z,10.19
2017-05-15T02:35:51.646Z,10.16
2017-05-15T02:36:32.229Z,10.23
2017-05-15T02:37:14.868Z,10.19
2017-05-15T02:37:55.425Z,10.17
2017-05-15T02:38:36.022Z,10.07
2017-05-15T02:39:16.639Z,10.09
2017-05-15T02:39:57.310Z,10.07
2017-05-15T02:40:37.945Z,10.13
2017-05-15T02:41:19.617Z,10.12
2017-05-15T02:42:00.252Z,10.05
2017-05-15T02:42:40.915Z,10.12
2017-05-15T02:43:21.590Z,10.15
2017-05-15T02:44:02.224Z,10.09
2017-05-15T02:44:42.904Z,10.1
2017-05-15T02:45:23.551Z,10.09
2017-05-15T02:46:05.151Z,10.02
2017-05-15T02:46:45.801Z,10.07
2017-05-15T02:47:26.383Z,9.98
2017-05-15T02:48:07.980Z,10.02
2017-05-15T02:48:48.505Z,10.05
2017-05-15T02:49:29.115Z,9.97
2017-05-15T02:50:09.665Z,10.01
2017-05-15T02:50:50.335Z,9.97
2017-05-15T02:51:30.916Z,10.02
2017-05-15T02:52:11.490Z,9.94
2017-05-15T02:52:53.130Z,10.02
2017-05-15T02:53:33.763Z,9.98
2017-05-15T02:54:14.423Z,9.98
2017-05-15T02:54:54.997Z,9.94
2017-05-15T02:55:36.630Z,9.92
2017-05-15T02:56:17.166Z,9.97
2017-05-15T02:56:57.709Z,9.97
2017-05-15T02:57:38.247Z,9.97
2017-05-15T02:58:18.869Z,9.97
2017-05-15T02:58:59.521Z,9.84
2017-05-15T02:59:40.096Z,9.87
2017-05-15T03:00:20.613Z,9.86
2017-05-15T03:01:01.206Z,9.86
2017-05-15T03:01:41.755Z,9.87
2017-05-15T03:02:22.300Z,9.87
2017-05-15T03:03:03.899Z,9.86
2017-05-15T03:03:44.433Z,9.87
2017-05-15T03:04:25.049Z,9.86
2017-05-15T03:05:05.626Z,9.83
2017-05-15T03:05:46.153Z,9.79
2017-05-15T03:06:26.685Z,9.82
2017-05-15T03:07:07.184Z,9.74
2017-05-15T03:07:47.740Z,9.8
2017-05-15T03:08:28.252Z,9.79
2017-05-15T03:09:08.854Z,9.76
2017-05-15T03:09:49.362Z,9.84
2017-05-15T03:10:29.930Z,9.76
2017-05-15T03:11:10.449Z,9.77
2017-05-15T03:11:51.030Z,9.69
2017-05-15T03:12:31.551Z,9.69
2017-05-15T03:13:12.095Z,9.69
2017-05-15T03:13:52.696Z,9.69
2017-05-15T03:14:33.302Z,9.74
2017-05-15T03:15:14.010Z,9.72
2017-05-15T03:15:54.524Z,9.72
2017-05-15T03:16:35.127Z,9.65
2017-05-15T03:17:15.646Z,9.73
2017-05-15T03:17:56.157Z,9.72
2017-05-15T03:18:36.702Z,9.72
2017-05-15T03:19:17.245Z,9.62
2017-05-15T03:19:57.853Z,9.66
2017-05-15T03:20:38.378Z,9.68
2017-05-15T03:21:18.956Z,9.64
2017-05-15T03:21:59.490Z,9.66
2017-05-15T03:22:40.058Z,9.66
2017-05-15T03:23:20.568Z,9.64
2017-05-15T03:24:02.182Z,9.66
2017-05-15T03:24:42.680Z,9.61
2017-05-15T03:25:23.239Z,9.65
2017-05-15T03:26:03.832Z,9.56
2017-05-15T03:26:44.367Z,9.61
2017-05-15T03:27:24.949Z,9.62
2017-05-15T03:28:05.584Z,9.69
2017-05-15T03:28:46.095Z,9.64
2017-05-15T03:29:26.627Z,9.55
2017-05-15T03:30:08.201Z,9.62
2017-05-15T03:30:55.579Z,9.64
2017-05-15T03:31:36.164Z,9.55
2017-05-15T03:32:16.781Z,9.51
2017-05-15T03:32:57.474Z,9.48
2017-05-15T03:33:38.057Z,9.62
2017-05-15T03:34:29.373Z,9.55
2017-05-15T03:35:10.011Z,9.54
2017-05-15T03:35:55.394Z,9.61
2017-05-15T03:36:36.016Z,9.56
2017-05-15T03:37:16.647Z,9.56
2017-05-15T03:37:57.347Z,9.55
2017-05-15T03:38:37.890Z,9.54
2017-05-15T03:39:20.561Z,9.54
2017-05-15T03:40:01.217Z,9.55
2017-05-15T03:40:41.782Z,9.55
2017-05-15T03:41:22.497Z,9.61
2017-05-15T03:42:04.106Z,9.56
2017-05-15T03:42:44.680Z,9.51
2017-05-15T03:43:25.344Z,9.51
2017-05-15T03:44:06.021Z,9.58
2017-05-15T03:44:47.676Z,9.51
2017-05-15T03:45:30.288Z,9.54
2017-05-15T03:46:10.878Z,9.46
2017-05-15T03:46:51.427Z,9.48
2017-05-15T03:47:32.037Z,9.46
2017-05-15T03:48:12.740Z,9.55
2017-05-15T03:48:53.338Z,9.58
2017-05-15T03:49:35.031Z,9.54
2017-05-15T03:50:20.369Z,9.59
2017-05-15T03:51:00.989Z,9.48
2017-05-15T03:51:41.579Z,9.58
2017-05-15T03:52:22.228Z,9.51
2017-05-15T03:53:02.734Z,9.51
2017-05-15T03:53:43.344Z,9.5
2017-05-15T03:54:23.868Z,9.62
2017-05-15T03:55:04.488Z,9.58
2017-05-15T03:55:45.098Z,9.55
2017-05-15T03:56:25.748Z,9.54
2017-05-15T03:57:06.322Z,9.64
2017-05-15T03:57:46.853Z,9.55
2017-05-15T03:58:27.415Z,9.65
2017-05-15T03:59:07.938Z,9.65
2017-05-15T03:59:48.525Z,9.65
2017-05-15T04:00:29.038Z,9.66
2017-05-15T04:01:09.628Z,9.64
2017-05-15T04:01:50.137Z,9.64
2017-05-15T04:02:30.674Z,9.56
2017-05-15T04:03:11.299Z,9.69
2017-05-15T04:03:51.939Z,9.69
2017-05-15T04:04:32.471Z,9.54
2017-05-15T04:05:13.015Z,9.64
2017-05-15T04:05:53.603Z,9.55
2017-05-15T04:06:34.266Z,9.68
2017-05-15T04:07:14.916Z,9.62
2017-05-15T04:07:56.504Z,9.73
2017-05-15T04:08:38.158Z,9.61
2017-05-15T04:09:18.697Z,9.65
2017-05-15T04:09:59.257Z,9.65
2017-05-15T04:10:39.901Z,9.66
2017-05-15T04:11:20.454Z,9.64
2017-05-15T04:12:01.151Z,9.64
2017-05-15T04:12:47.513Z,9.69
2017-05-15T04:13:28.144Z,9.76
2017-05-15T04:14:08.715Z,9.69
2017-05-15T04:14:50.330Z,9.68
2017-05-15T04:15:31.987Z,9.72
2017-05-15T04:16:12.550Z,9.72
2017-05-15T04:16:53.130Z,9.73
2017-05-15T04:17:34.772Z,9.69
2017-05-15T04:18:15.486Z,9.69
2017-05-15T04:18:56.107Z,9.74
2017-05-15T04:19:36.774Z,9.64
2017-05-15T04:20:17.334Z,9.73
2017-05-15T04:20:58.007Z,9.69
2017-05-15T04:21:38.564Z,9.66
2017-05-15T04:22:23.845Z,9.72
2017-05-15T04:23:04.508Z,9.69
2017-05-15T05:31:58.742Z,11.54
2017-05-15T05:32:39.259Z,11.5
2017-05-15T05:33:19.941Z,11.45
2017-05-15T05:34:01.644Z,11.48
2017-05-15T05:34:42.338Z,11.51
2017-05-15T05:35:22.893Z,11.51
2017-05-15T05:36:03.550Z,11.59
2017-05-15T05:36:48.759Z,11.51
2017-05-15T05:37:29.459Z,11.52
2017-05-15T05:38:10.021Z,11.47
2017-05-15T05:38:51.802Z,11.5
2017-05-15T05:39:32.531Z,11.54
2017-05-15T05:40:13.097Z,11.48
2017-05-15T05:40:53.809Z,11.57
2017-05-15T05:41:34.366Z,11.55
2017-05-15T05:42:16.154Z,11.54
2017-05-15T05:42:56.790Z,11.5
2017-05-15T05:43:42.252Z,11.6
2017-05-15T05:44:23.008Z,11.6
2017-05-15T05:45:03.764Z,11.51
2017-05-15T05:45:44.422Z,11.62
2017-05-15T05:46:26.108Z,11.69
2017-05-15T05:47:06.644Z,11.6
2017-05-15T05:47:47.413Z,11.6
2017-05-15T05:48:28.160Z,11.63
2017-05-15T05:49:08.871Z,11.62
2017-05-15T05:49:54.433Z,11.62
2017-05-15T05:50:35.137Z,11.66
2017-05-15T05:51:16.863Z,11.65
2017-05-15T05:51:58.622Z,11.73
2017-05-15T05:52:39.374Z,11.69
2017-05-15T05:53:20.141Z,11.68
2017-05-15T05:54:00.897Z,11.7
2017-05-15T05:54:41.448Z,11.68
2017-05-15T05:55:23.177Z,11.72
2017-05-15T05:56:03.922Z,11.7
2017-05-15T05:56:44.676Z,11.72
2017-05-15T05:57:25.419Z,11.75
2017-05-15T05:58:06.223Z,11.73
2017-05-15T05:58:47.003Z,11.75
2017-05-15T05:59:27.549Z,11.8
2017-05-15T06:00:10.307Z,11.8
2017-05-15T06:00:51.005Z,11.81
2017-05-15T06:01:31.619Z,11.88
2017-05-15T06:02:12.277Z,11.91
2017-05-15T06:02:52.911Z,11.97
2017-05-15T06:03:33.453Z,11.94
2017-05-15T06:04:14.054Z,11.91
2017-05-15T06:04:54.725Z,11.9
2017-05-15T06:05:35.229Z,11.9
2017-05-15T06:06:16.907Z,11.9
2017-05-15T06:06:57.569Z,11.94
2017-05-15T06:07:38.192Z,12.03
2017-05-15T06:08:18.866Z,11.94
2017-05-15T06:08:59.519Z,12.02
2017-05-15T06:09:40.097Z,11.99
2017-05-15T06:10:20.729Z,11.97
2017-05-15T06:11:01.369Z,12.09
2017-05-15T06:11:42.029Z,12.04
2017-05-15T06:12:22.672Z,12.06
2017-05-15T06:13:03.374Z,12.12
2017-05-15T06:13:43.923Z,12.06
2017-05-15T06:14:24.552Z,12.07
2017-05-15T06:15:05.063Z,12.1
2017-05-15T06:15:45.744Z,12.12
2017-05-15T06:16:26.320Z,12.12
2017-05-15T06:17:06.925Z,12.09
2017-05-15T06:17:47.429Z,12.04
2017-05-15T06:18:28.023Z,12.1
2017-05-15T06:19:08.688Z,12.09
2017-05-15T06:19:49.341Z,12.12
2017-05-15T06:20:29.995Z,12.12
2017-05-15T06:21:10.659Z,12.13
2017-05-15T06:21:52.347Z,12.17
2017-05-15T06:22:32.971Z,12.13
2017-05-15T06:23:13.621Z,12.28
2017-05-15T06:23:54.273Z,12.22
2017-05-15T06:24:34.972Z,12.24
2017-05-15T06:25:15.598Z,12.18
2017-05-15T06:25:56.280Z,12.28
2017-05-15T06:26:36.917Z,12.28
2017-05-15T06:27:17.557Z,12.24
2017-05-15T06:27:58.210Z,12.32
2017-05-15T06:28:38.846Z,12.29
2017-05-15T06:29:19.370Z,12.36
2017-05-15T06:30:00.080Z,12.47
2017-05-15T06:30:40.705Z,12.42
2017-05-15T06:31:21.226Z,12.43
2017-05-15T06:32:01.914Z,12.43
2017-05-15T06:32:42.550Z,12.4
2017-05-15T06:33:23.053Z,12.42
2017-05-15T06:34:03.666Z,12.45
2017-05-15T06:34:44.281Z,12.45
2017-05-15T06:35:24.963Z,12.39
2017-05-15T06:36:05.509Z,12.37
2017-05-15T06:36:47.109Z,12.43
2017-05-15T06:37:27.825Z,12.53
2017-05-15T06:38:08.494Z,12.47
2017-05-15T06:38:49.109Z,12.6
2017-05-15T06:39:29.725Z,12.6
2017-05-15T06:40:10.505Z,12.62
2017-05-15T06:40:51.160Z,12.61
2017-05-15T06:41:31.792Z,12.54
2017-05-15T06:42:12.455Z,12.65
2017-05-15T06:42:53.084Z,12.61
2017-05-15T06:43:33.718Z,12.7
2017-05-15T06:44:14.279Z,12.73
2017-05-15T06:44:54.958Z,12.65
2017-05-15T06:45:35.587Z,12.72
2017-05-15T06:46:16.097Z,12.79
2017-05-15T06:46:56.714Z,12.76
2017-05-15T06:47:37.349Z,12.82
2017-05-15T06:48:17.874Z,12.83
2017-05-15T06:48:58.545Z,12.79
2017-05-15T06:49:39.255Z,12.83
2017-05-15T06:50:19.966Z,12.8
2017-05-15T06:51:00.462Z,12.85
2017-05-15T06:51:41.074Z,12.83
2017-05-15T06:52:21.761Z,12.86
2017-05-15T06:53:02.448Z,12.86
2017-05-15T06:53:43.021Z,12.94
2017-05-15T06:54:23.682Z,12.83
2017-05-15T06:55:04.359Z,12.94
2017-05-15T06:55:45.073Z,12.86
2017-05-15T06:56:25.608Z,12.93
2017-05-15T06:57:06.306Z,12.94
2017-05-15T06:57:46.883Z,12.87
2017-05-15T06:58:28.501Z,12.98
2017-05-15T06:59:09.064Z,13
2017-05-15T06:59:49.716Z,13
2017-05-15T07:00:30.240Z,13.11
2017-05-15T07:01:10.925Z,13.08
2017-05-15T07:01:51.613Z,13.08
2017-05-15T07:02:32.220Z,13.05
2017-05-15T07:03:12.759Z,13.09
2017-05-15T07:03:53.414Z,13.09
2017-05-15T07:04:34.069Z,13.12
2017-05-15T07:05:14.740Z,13.15
2017-05-15T07:05:55.412Z,13.12
2017-05-15T07:06:36.047Z,13.12
2017-05-15T07:07:16.581Z,13.19
2017-05-15T07:07:57.371Z,13.3
2017-05-15T07:08:38.012Z,13.23
2017-05-15T07:09:18.652Z,13.38
2017-05-15T07:09:59.291Z,13.27
2017-05-15T07:10:39.992Z,13.37
2017-05-15T07:11:20.636Z,13.37
2017-05-15T07:12:01.276Z,13.38
2017-05-15T07:12:41.897Z,13.41
2017-05-15T07:13:22.620Z,13.41
2017-05-15T07:14:03.321Z,13.47
2017-05-15T07:14:43.873Z,13.39
2017-05-15T07:15:24.519Z,13.44
2017-05-15T07:16:05.140Z,13.49
2017-05-15T07:16:45.727Z,13.49
2017-05-15T07:17:26.229Z,13.49
2017-05-15T07:18:06.838Z,13.56
2017-05-15T07:18:47.474Z,13.56
2017-05-15T07:19:27.987Z,13.59
2017-05-15T07:20:08.586Z,13.65
2017-05-15T07:20:49.224Z,13.57
2017-05-15T07:21:29.754Z,13.6
2017-05-15T07:22:10.444Z,13.59
2017-05-15T07:22:51.085Z,13.6
2017-05-15T07:23:31.735Z,13.67
2017-05-15T07:24:12.385Z,13.68
2017-05-15T07:24:53.052Z,13.63
2017-05-15T07:25:33.687Z,13.65
2017-05-15T07:26:14.357Z,13.68
2017-05-15T07:26:54.996Z,13.7
2017-05-15T07:27:35.662Z,13.71
2017-05-15T07:28:16.196Z,13.74
2017-05-15T07:28:56.886Z,13.79
2017-05-15T07:29:38.531Z,13.74
2017-05-15T07:30:19.081Z,13.87
2017-05-15T07:30:59.802Z,13.79
2017-05-15T07:31:40.496Z,13.86
2017-05-15T07:32:21.038Z,13.79
2017-05-15T07:33:01.778Z,13.9
2017-05-15T07:33:42.455Z,13.89
2017-05-15T07:34:22.986Z,13.92
2017-05-15T07:35:03.670Z,13.92
2017-05-15T07:35:44.360Z,13.96
2017-05-15T07:36:24.990Z,13.96
2017-05-15T07:37:05.699Z,13.9
2017-05-15T07:37:46.393Z,13.96
2017-05-15T07:38:27.056Z,13.95
2017-05-15T07:39:07.697Z,13.92
2017-05-15T07:39:48.349Z,13.96
2017-05-15T07:40:29.072Z,13.97
2017-05-15T07:41:09.814Z,14.03
2017-05-15T07:41:50.549Z,14.07
2017-05-15T07:42:31.187Z,14.14
2017-05-15T07:43:12.246Z,14.03
2017-05-15T07:43:54.926Z,14.1
2017-05-15T07:44:35.572Z,14.08
2017-05-15T07:45:16.246Z,14.12
2017-05-15T07:45:56.882Z,14.18
2017-05-15T07:46:38.362Z,14.14
2017-05-15T07:47:19.584Z,14.23
2017-05-15T07:48:00.428Z,14.22
2017-05-15T07:48:41.100Z,14.23
2017-05-15T07:49:21.887Z,14.22
2017-05-15T07:50:02.412Z,14.22
2017-05-15T07:50:43.284Z,14.29
2017-05-15T07:51:24.010Z,14.29
2017-05-15T07:52:04.697Z,14.29
2017-05-15T07:52:45.284Z,14.29
2017-05-15T07:53:25.950Z,14.3
2017-05-15T07:54:06.730Z,14.28
2017-05-15T07:54:48.408Z,14.33
2017-05-15T07:55:32.510Z,14.33
2017-05-15T07:56:13.235Z,14.41
2017-05-15T07:56:53.926Z,14.44
2017-05-15T07:57:34.567Z,14.44
2017-05-15T07:58:16.243Z,14.47
2017-05-15T07:59:01.649Z,14.41
2017-05-15T07:59:42.247Z,14.47
2017-05-15T08:58:09.962Z,16.47
2017-05-15T08:58:50.456Z,16.43
2017-05-15T08:59:32.041Z,16.47
2017-05-15T09:00:12.675Z,16.53
2017-05-15T09:23:02.677Z,17.51
2017-05-15T09:23:44.323Z,17.48
2017-05-15T09:24:26.985Z,17.48
2017-05-15T09:25:07.647Z,17.41
2017-05-15T09:25:49.360Z,17.51
2017-05-15T09:26:30.004Z,17.41
2017-05-15T09:27:10.623Z,17.48
2017-05-15T09:27:51.276Z,17.56
2017-05-15T09:28:31.920Z,17.6
2017-05-15T09:29:24.053Z,17.68
2017-05-15T09:30:05.780Z,17.7
2017-05-15T09:30:48.427Z,17.76
2017-05-15T09:31:44.541Z,17.72
2017-05-15T09:32:27.218Z,17.76
2017-05-15T09:33:07.793Z,17.79
2017-05-15T09:34:03.100Z,17.85
2017-05-15T09:34:44.799Z,17.87
2017-05-15T09:35:25.406Z,17.9
2017-05-15T09:36:17.536Z,17.82
2017-05-15T09:37:10.102Z,17.94
2017-05-15T09:37:51.790Z,17.9
2017-05-15T09:38:33.466Z,18.03
2017-05-15T09:39:31.095Z,18
2017-05-15T09:40:11.735Z,18.13
2017-05-15T09:40:57.147Z,18.28
2017-05-15T09:41:42.624Z,18.23
2017-05-15T09:42:25.289Z,18.31
2017-05-15T09:43:05.901Z,18.26
2017-05-15T09:43:48.518Z,18.31
2017-05-15T10:03:37.481Z,18.83
2017-05-15T10:04:18.188Z,18.95
2017-05-15T10:04:59.944Z,18.95
2017-05-15T10:05:42.834Z,19
2017-05-15T10:06:23.568Z,18.96
2017-05-15T10:07:05.383Z,18.93
2017-05-15T10:07:46.139Z,18.88
2017-05-15T10:08:26.880Z,18.88
2017-05-15T10:09:07.467Z,18.92
2017-05-15T10:09:48.279Z,18.96
2017-05-15T10:10:29.048Z,19.08
2017-05-15T10:11:09.721Z,19.15
2017-05-15T10:11:50.320Z,19.15
2017-05-15T10:12:31.062Z,19.29
2017-05-15T10:13:11.843Z,19.22
2017-05-15T10:13:52.654Z,19.34
2017-05-15T10:14:33.365Z,19.3
2017-05-15T10:15:16.116Z,19.29
2017-05-15T10:15:59.088Z,19.26
2017-05-15T10:16:45.553Z,19.31
2017-05-15T10:17:37.330Z,19.31
2017-05-15T10:18:23.678Z,19.48
2017-05-15T10:19:04.232Z,19.44
2017-05-15T10:19:51.611Z,19.54
2017-05-15T10:20:37.264Z,19.56
2017-05-15T10:21:20.039Z,19.58
2017-05-15T10:22:00.580Z,19.59
2017-05-15T10:22:45.977Z,19.73
2017-05-15T10:23:26.752Z,19.81
2017-05-15T10:24:07.282Z,19.81
2017-05-15T10:25:03.964Z,19.96
2017-05-15T10:25:45.248Z,20.06
2017-05-15T10:26:25.793Z,20
2017-05-15T10:27:07.577Z,20.02
2017-05-15T10:27:54.156Z,20.11
2017-05-15T10:28:34.805Z,20.11
2017-05-15T10:29:32.114Z,20.03
2017-05-15T10:30:15.342Z,20.1
2017-05-15T10:30:58.117Z,20.1
2017-05-15T10:31:54.453Z,20.06
2017-05-15T10:32:40.994Z,20.18
2017-05-15T10:33:21.648Z,20.11
2017-05-15T10:34:07.074Z,20.13
2017-05-15T10:34:47.650Z,20.14
2017-05-15T10:35:32.993Z,20.14
2017-05-15T10:36:13.744Z,20.24
2017-05-15T10:36:54.314Z,20.1
2017-05-15T10:37:46.997Z,20.14
2017-05-15T10:38:43.662Z,20.19
2017-05-15T10:39:29.128Z,20.16
2017-05-15T10:40:11.857Z,20.18
2017-05-15T10:40:57.596Z,20.11
2017-05-15T10:41:44.107Z,20.09
2017-05-15T10:42:25.872Z,20.14
2017-05-15T10:43:07.663Z,20.11
2017-05-15T10:43:48.211Z,20.06
2017-05-15T10:44:33.578Z,20.11
2017-05-15T10:45:15.223Z,20.09
2017-05-15T10:45:56.911Z,20.07
2017-05-15T10:46:37.693Z,20
2017-05-15T10:47:18.372Z,19.88
2017-05-15T10:47:59.041Z,19.71
2017-05-15T10:48:39.601Z,19.62
2017-05-15T10:49:27.004Z,19.56
2017-05-15T10:50:07.708Z,19.58
2017-05-15T10:50:48.245Z,19.54
2017-05-15T10:51:43.477Z,19.54
2017-05-15T10:52:31.161Z,19.56
2017-05-15T10:53:11.714Z,19.56
2017-05-15T10:53:53.433Z,19.76
2017-05-15T10:54:34.119Z,19.82
2017-05-15T10:55:40.837Z,19.92
2017-05-15T11:24:49.852Z,20.84
2017-05-15T11:25:32.938Z,20.85
2017-05-15T11:26:15.332Z,20.75
2017-05-15T11:26:56.796Z,20.82
2017-05-15T11:27:37.883Z,20.88
2017-05-15T11:28:20.519Z,20.95
2017-05-15T11:29:01.155Z,20.93
2017-05-15T11:29:42.838Z,21.02
2017-05-15T11:30:25.598Z,21.05
2017-05-15T11:31:11.138Z,21.06
2017-05-15T11:31:51.776Z,21.12
2017-05-15T11:32:33.436Z,21.17
2017-05-15T11:33:14.119Z,21.14
2017-05-15T11:33:55.666Z,21.2
2017-05-15T11:34:37.386Z,21.27
2017-05-15T11:35:18.029Z,21.22
2017-05-15T11:35:59.705Z,21.33
2017-05-15T11:36:41.367Z,21.39
2017-05-15T11:37:22.044Z,21.39
2017-05-15T11:38:04.752Z,21.33
2017-05-15T11:38:47.423Z,21.27
2017-05-15T11:39:28.133Z,21.21
2017-05-15T11:40:08.786Z,21.2
2017-05-15T11:40:49.394Z,21.2
2017-05-15T11:41:30.042Z,21.15
2017-05-15T11:42:11.684Z,21.22
2017-05-15T11:42:53.253Z,21.18
2017-05-15T11:43:33.829Z,21.24
2017-05-15T11:44:14.501Z,21.14
2017-05-15T11:44:55.178Z,21.15
2017-05-15T11:45:35.868Z,21.14
2017-05-15T11:46:16.450Z,21.22
2017-05-15T11:46:58.140Z,21.3
2017-05-15T11:47:40.804Z,21.35
2017-05-15T11:48:21.472Z,21.48
2017-05-15T11:49:02.073Z,21.51
2017-05-15T11:49:42.683Z,21.58
2017-05-15T11:50:23.416Z,21.62
2017-05-15T11:51:03.978Z,21.69
2017-05-15T11:51:44.670Z,21.73
2017-05-15T11:52:25.356Z,21.76
2017-05-15T11:53:05.888Z,21.83
2017-05-15T11:53:47.553Z,21.89
2017-05-15T11:54:28.243Z,21.83
2017-05-15T11:55:08.901Z,21.98
2017-05-15T11:55:49.540Z,21.99
2017-05-15T11:56:32.143Z,22.02
2017-05-15T11:57:12.900Z,22.07
2017-05-15T11:57:58.368Z,22.14
2017-05-15T11:58:39.135Z,22.08
2017-05-15T11:59:19.661Z,22.02
2017-05-15T12:00:00.283Z,22.14
2017-05-15T12:00:40.977Z,22.2
2017-05-15T12:01:21.526Z,22.11
2017-05-15T12:02:02.192Z,22.13
2017-05-15T12:02:44.942Z,22.07
2017-05-15T12:03:25.495Z,21.89
2017-05-15T12:04:06.135Z,21.85
2017-05-15T12:04:46.767Z,21.82
2017-05-15T12:05:27.456Z,21.8
2017-05-15T12:06:08.047Z,21.75
2017-05-15T12:06:48.698Z,21.8
2017-05-15T12:07:31.272Z,21.93
2017-05-15T12:08:12.890Z,21.92
2017-05-15T12:08:53.552Z,21.99
2017-05-15T12:09:34.103Z,22.06
2017-05-15T12:10:14.697Z,22
2017-05-15T12:10:55.217Z,22.11
2017-05-15T12:11:35.853Z,22.07
2017-05-15T12:12:16.540Z,22.14
2017-05-15T12:12:57.114Z,22.23
2017-05-15T12:13:37.623Z,22.32
2017-05-15T12:14:18.253Z,22.35
2017-05-15T12:14:58.864Z,22.39
2017-05-15T12:15:39.404Z,22.36
2017-05-15T12:16:19.970Z,22.35
2017-05-15T12:17:00.642Z,22.32
2017-05-15T12:17:41.188Z,22.38
2017-05-15T12:18:21.973Z,22.36
2017-05-15T12:19:03.606Z,22.28
2017-05-15T12:19:44.117Z,22.2
2017-05-15T12:20:24.740Z,22.13
2017-05-15T12:21:05.307Z,22.1
2017-05-15T12:21:45.908Z,22.1
2017-05-15T12:22:26.462Z,22.1
2017-05-15T12:23:07.125Z,22.23
2017-05-15T12:23:48.750Z,22.15
2017-05-15T12:24:29.322Z,22.25
2017-05-15T12:25:10.024Z,22.28
2017-05-15T12:25:51.565Z,22.39
2017-05-15T12:26:32.145Z,22.47
2017-05-15T12:27:12.801Z,22.44
2017-05-15T12:27:53.433Z,22.39
2017-05-15T12:28:34.035Z,22.51
2017-05-15T12:29:14.617Z,22.51
2017-05-15T12:29:55.145Z,22.38
2017-05-15T12:30:35.777Z,22.36
2017-05-15T12:31:16.462Z,22.39
2017-05-15T12:31:58.053Z,22.45
2017-05-15T12:32:38.563Z,22.44
2017-05-15T12:33:19.256Z,22.5
2017-05-15T12:33:59.860Z,22.44
2017-05-15T12:34:40.417Z,22.47
2017-05-15T12:35:21.100Z,22.39
2017-05-15T12:36:01.733Z,22.47
2017-05-15T12:36:42.416Z,22.41
2017-05-15T12:37:23.053Z,22.44
2017-05-15T12:38:03.795Z,22.54
2017-05-15T12:38:44.823Z,22.57
2017-05-15T12:39:25.443Z,22.63
2017-05-15T12:40:05.973Z,22.68
2017-05-15T12:40:46.592Z,22.66
2017-05-15T12:41:27.199Z,22.72
2017-05-15T12:42:07.855Z,22.81
2017-05-15T12:42:49.487Z,22.93
2017-05-15T12:43:32.331Z,22.91
2017-05-15T12:44:12.883Z,22.91
2017-05-15T12:44:53.593Z,22.99
2017-05-15T12:45:34.305Z,23.05
2017-05-15T12:46:14.886Z,23.08
2017-05-15T12:46:55.571Z,23.1
2017-05-15T12:47:36.249Z,23.08
2017-05-15T12:48:16.858Z,23.09
2017-05-15T12:48:57.497Z,23.1
2017-05-15T12:49:40.167Z,23.02
2017-05-15T12:50:20.843Z,22.94
2017-05-15T12:51:01.571Z,22.91
2017-05-15T12:51:43.250Z,22.91
2017-05-15T12:52:24.958Z,22.93
2017-05-15T12:53:05.578Z,22.96
2017-05-15T12:53:47.259Z,22.93
2017-05-15T12:54:27.863Z,22.94
2017-05-15T12:55:08.537Z,22.96
2017-05-15T12:55:49.249Z,22.93
2017-05-15T12:56:29.940Z,22.98
2017-05-15T12:57:10.588Z,22.98
2017-05-15T12:57:51.232Z,22.93
2017-05-15T12:58:31.850Z,23.02
2017-05-15T12:59:12.548Z,23.09
2017-05-15T12:59:53.211Z,23.06